createdAt,value
2022-08-22T00:03:07.844Z,2.83
2022-08-22T00:03:08.536Z,7.35
2022-08-22T00:15:42.091Z,9.27
2022-08-22T00:18:48.584Z,8.50
2022-08-22T00:50:07.223Z,6.78
2022-08-22T00:53:42.798Z,6.18
2022-08-22T01:14:53.402Z,6.05
2022-08-22T01:19:03.799Z,6.07
2022-08-22T01:23:11.082Z,4.97
2022-08-22T02:11:12.835Z,5.45
2022-08-22T02:39:38.336Z,6.05
2022-08-22T02:42:27.085Z,6.13
2022-08-22T02:44:57.131Z,5.88
2022-08-22T02:47:49.307Z,6.22
2022-08-22T02:50:36.431Z,6.20
2022-08-22T02:53:49.413Z,6.82
2022-08-22T02:56:54.305Z,6.50
2022-08-22T02:59:27.325Z,6.25
2022-08-22T03:01:55.812Z,5.72
2022-08-22T03:04:31.444Z,6.47
2022-08-22T03:07:11.554Z,6.35
2022-08-22T03:09:57.689Z,6.45
2022-08-22T03:12:33.605Z,6.93
2022-08-22T03:15:19.445Z,6.90
2022-08-22T03:17:57.806Z,6.13
2022-08-22T03:20:55.368Z,6.10
2022-08-22T03:23:39.023Z,6.18
2022-08-22T03:26:20.741Z,6.25
2022-08-22T03:29:01.718Z,6.38
2022-08-22T03:31:30.952Z,6.35
2022-08-22T03:34:23.004Z,6.90
2022-08-22T03:37:15.933Z,6.43
2022-08-22T03:39:43.196Z,6.57
2022-08-22T03:42:16.070Z,7.13
2022-08-22T03:44:51.416Z,7.05
2022-08-22T03:47:33.416Z,7.28
2022-08-22T03:50:27.958Z,7.28
2022-08-22T03:53:19.209Z,9.68
2022-08-22T03:56:29.210Z,7.80
2022-08-22T03:59:55.603Z,7.10
2022-08-22T04:02:56.717Z,7.60
2022-08-22T04:06:12.619Z,7.72
2022-08-22T04:09:35.508Z,7.97
2022-08-22T04:12:45.868Z,7.97
2022-08-22T04:15:56.521Z,7.95
2022-08-22T04:24:05.315Z,7.35
2022-08-22T04:27:13.383Z,7.95
2022-08-22T04:29:49.193Z,8.10
2022-08-22T04:32:47.661Z,7.30
2022-08-22T04:35:30.528Z,7.25
2022-08-22T04:38:00.865Z,7.50
2022-08-22T04:40:34.972Z,8.32
2022-08-22T04:43:15.657Z,8.60
2022-08-22T04:45:56.763Z,9.05
2022-08-22T04:48:35.176Z,9.35
2022-08-22T04:51:13.130Z,9.10
2022-08-22T04:53:50.509Z,9.60
2022-08-22T04:56:47.308Z,10.18
2022-08-22T04:59:20.463Z,8.98
2022-08-22T05:01:55.688Z,11.38
2022-08-22T05:04:32.658Z,9.55
2022-08-22T05:07:07.290Z,9.10
2022-08-22T05:09:38.220Z,8.90
2022-08-22T05:12:15.722Z,9.80
2022-08-22T05:14:46.625Z,9.80
2022-08-22T05:17:17.291Z,8.63
2022-08-22T05:19:50.586Z,10.05
2022-08-22T05:22:21.790Z,8.90
2022-08-22T05:24:51.845Z,8.40
2022-08-22T05:27:25.802Z,8.60
2022-08-22T05:29:55.867Z,9.02
2022-08-22T05:32:29.147Z,7.68
2022-08-22T05:35:00.241Z,8.15
2022-08-22T05:37:39.306Z,11.48
2022-08-22T05:40:07.749Z,7.80
2022-08-22T05:42:37.539Z,6.82
2022-08-22T05:45:07.022Z,6.22
2022-08-22T05:48:04.301Z,6.47
2022-08-22T05:50:53.689Z,6.65
2022-08-22T05:53:30.712Z,6.15
2022-08-22T05:55:57.697Z,5.82
2022-08-22T05:58:41.516Z,5.90
2022-08-22T06:01:20.694Z,5.00
2022-08-22T06:03:56.753Z,5.03
2022-08-22T06:06:24.841Z,4.78
2022-08-22T06:09:19.830Z,4.15
2022-08-22T06:12:03.319Z,4.80
2022-08-22T06:15:00.894Z,4.28
2022-08-22T06:17:36.247Z,4.07
2022-08-22T06:20:08.717Z,3.80
2022-08-22T06:22:40.286Z,3.40
2022-08-22T06:25:22.577Z,3.17
2022-08-22T06:30:17.661Z,3.08
2022-08-22T06:32:59.852Z,3.75
2022-08-22T06:36:02.481Z,3.22
2022-08-22T06:38:34.983Z,3.50
2022-08-22T06:41:06.188Z,3.13
2022-08-22T06:43:38.748Z,3.42
2022-08-22T06:46:06.627Z,3.75
2022-08-22T06:48:34.796Z,3.25
2022-08-22T06:51:02.748Z,3.20
2022-08-22T06:53:48.035Z,3.50
2022-08-22T06:56:26.090Z,2.80
2022-08-22T06:58:56.867Z,2.88
2022-08-22T07:01:58.262Z,3.10
2022-08-22T07:04:26.599Z,4.00
2022-08-22T07:06:55.475Z,2.60
2022-08-22T07:09:32.046Z,2.78
2022-08-22T07:12:02.075Z,2.80
2022-08-22T07:14:32.317Z,3.05
2022-08-22T07:17:04.583Z,2.90
2022-08-22T07:19:33.580Z,2.20
2022-08-22T07:22:13.844Z,2.58
2022-08-22T07:24:47.133Z,2.45
2022-08-22T07:27:37.520Z,2.50
2022-08-22T07:30:11.373Z,2.40
2022-08-22T07:33:26.524Z,2.78
2022-08-22T07:36:01.598Z,2.85
2022-08-22T07:38:43.011Z,2.30
2022-08-22T07:41:16.147Z,3.00
2022-08-22T07:43:45.596Z,2.53
2022-08-22T07:46:21.325Z,3.95
2022-08-22T07:49:08.138Z,2.97
2022-08-22T07:51:47.780Z,2.95
2022-08-22T07:54:19.340Z,2.92
2022-08-22T07:57:04.298Z,2.72
2022-08-22T07:59:34.398Z,3.13
2022-08-22T08:02:02.213Z,2.17
2022-08-22T08:04:39.497Z,3.22
2022-08-22T08:07:09.157Z,2.40
2022-08-22T08:09:41.483Z,2.60
2022-08-22T08:12:10.899Z,2.45
2022-08-22T08:14:41.113Z,2.20
2022-08-22T08:17:11.923Z,2.80
2022-08-22T08:19:40.236Z,2.50
2022-08-22T08:22:07.695Z,3.10
2022-08-22T08:24:40.207Z,2.85
2022-08-22T08:27:32.523Z,2.42
2022-08-22T08:30:15.101Z,2.20
2022-08-22T08:32:43.617Z,2.30
2022-08-22T08:35:20.255Z,2.15
2022-08-22T08:37:51.318Z,2.45
2022-08-22T08:40:59.843Z,2.10
2022-08-22T08:43:45.121Z,2.10
2022-08-22T08:46:55.305Z,2.47
2022-08-22T08:53:00.315Z,2.00
2022-08-22T08:55:37.694Z,1.60
2022-08-22T08:58:32.958Z,1.90
2022-08-22T09:01:17.018Z,1.80
2022-08-22T09:04:17.016Z,1.65
2022-08-22T09:07:04.793Z,1.90
2022-08-22T09:09:43.933Z,1.85
2022-08-22T09:12:35.152Z,1.60
2022-08-22T09:15:20.361Z,1.48
2022-08-22T09:18:08.754Z,1.10
2022-08-22T09:20:55.816Z,1.33
2022-08-22T09:23:54.454Z,1.40
2022-08-22T09:26:30.052Z,1.30
2022-08-22T09:29:28.943Z,1.65
2022-08-22T09:32:16.179Z,1.90
2022-08-22T09:35:00.345Z,1.83
2022-08-22T09:37:52.910Z,2.00
2022-08-22T09:40:30.321Z,2.10
2022-08-22T09:43:11.169Z,1.88
2022-08-22T09:45:45.558Z,1.45
2022-08-22T09:48:29.287Z,2.10
2022-08-22T09:51:31.261Z,1.90
2022-08-22T09:54:14.440Z,1.70
2022-08-22T09:56:56.766Z,2.22
2022-08-22T09:59:31.698Z,2.00
2022-08-22T10:02:27.620Z,2.03
2022-08-22T10:05:40.477Z,1.92
2022-08-22T10:08:28.672Z,1.40
2022-08-22T10:11:13.924Z,2.10
2022-08-22T10:14:02.747Z,2.95
2022-08-22T10:16:42.695Z,1.80
2022-08-22T10:19:16.489Z,1.90
2022-08-22T10:22:06.737Z,1.77
2022-08-22T10:24:44.047Z,2.40
2022-08-22T10:27:28.954Z,2.35
2022-08-22T10:30:20.635Z,2.10
2022-08-22T10:32:55.123Z,2.70
2022-08-22T10:35:27.226Z,3.10
2022-08-22T10:37:58.665Z,2.58
2022-08-22T10:41:00.703Z,2.92
2022-08-22T10:43:46.273Z,2.67
2022-08-22T10:46:17.115Z,2.78
2022-08-22T10:48:49.102Z,2.92
2022-08-22T10:51:35.581Z,2.95
2022-08-22T10:54:09.283Z,2.00
2022-08-22T10:56:52.599Z,2.10
2022-08-22T10:59:38.490Z,2.35
2022-08-22T11:02:28.329Z,2.65
2022-08-22T11:05:13.995Z,2.42
2022-08-22T11:08:09.887Z,2.40
2022-08-22T11:10:55.056Z,2.67
2022-08-22T11:13:43.380Z,2.00
2022-08-22T11:16:26.854Z,2.13
2022-08-22T11:19:15.327Z,1.85
2022-08-22T11:21:57.487Z,2.47
2022-08-22T11:24:35.226Z,2.20
2022-08-22T11:27:21.090Z,1.50
2022-08-22T11:30:07.517Z,1.90
2022-08-22T11:33:01.411Z,2.25
2022-08-22T11:35:37.428Z,2.00
2022-08-22T11:38:28.062Z,1.65
2022-08-22T11:41:09.466Z,1.67
2022-08-22T11:43:49.851Z,2.28
2022-08-22T11:46:32.863Z,1.80
2022-08-22T11:49:34.059Z,1.77
2022-08-22T11:52:10.111Z,1.42
2022-08-22T11:54:42.354Z,1.42
2022-08-22T12:00:03.694Z,1.00
2022-08-22T12:03:09.388Z,1.05
2022-08-22T12:05:51.566Z,1.27
2022-08-22T12:08:33.849Z,0.80
2022-08-22T12:11:19.388Z,1.30
2022-08-22T12:14:02.380Z,0.90
2022-08-22T12:16:45.081Z,0.93
2022-08-22T12:19:27.349Z,1.05
2022-08-22T12:22:37.892Z,1.08
2022-08-22T12:25:23.153Z,1.02
2022-08-22T12:28:10.359Z,0.80
2022-08-22T12:30:48.419Z,0.90
2022-08-22T12:33:42.832Z,1.00
2022-08-22T12:36:42.127Z,1.23
2022-08-22T12:39:30.166Z,1.00
2022-08-22T12:42:19.533Z,1.13
2022-08-22T12:45:05.071Z,1.30
2022-08-22T12:47:42.297Z,1.13
2022-08-22T12:50:23.873Z,1.10
2022-08-22T12:53:02.408Z,1.55
2022-08-22T12:56:06.862Z,1.02
2022-08-22T12:58:58.662Z,1.00
2022-08-22T13:01:33.748Z,1.05
2022-08-22T13:04:05.098Z,1.05
2022-08-22T13:06:35.130Z,1.20
2022-08-22T13:09:11.539Z,1.10
2022-08-22T13:11:40.586Z,1.23
2022-08-22T13:14:09.451Z,1.13
2022-08-22T13:16:50.978Z,1.00
2022-08-22T13:19:22.268Z,1.10
2022-08-22T13:22:00.365Z,1.17
2022-08-22T13:24:52.667Z,1.05
2022-08-22T13:27:25.861Z,1.00
2022-08-22T13:30:08.144Z,1.05
2022-08-22T13:32:47.562Z,1.02
2022-08-22T13:35:27.144Z,1.20
2022-08-22T13:38:05.042Z,1.00
2022-08-22T13:40:33.243Z,1.10
2022-08-22T13:43:07.703Z,1.10
2022-08-22T13:45:36.970Z,1.10
2022-08-22T13:48:14.407Z,4.57
2022-08-22T13:51:08.620Z,1.10
2022-08-22T13:53:49.390Z,1.10
2022-08-22T13:56:47.163Z,0.90
2022-08-22T13:59:40.370Z,1.00
2022-08-22T14:02:18.179Z,0.90
2022-08-22T14:04:45.972Z,0.95
2022-08-22T14:07:33.926Z,1.00
2022-08-22T14:10:15.315Z,1.17
2022-08-22T14:13:05.060Z,1.10
2022-08-22T14:15:44.761Z,1.20
2022-08-22T14:18:18.642Z,1.00
2022-08-22T14:20:47.651Z,1.00
2022-08-22T14:23:29.230Z,1.02
2022-08-22T14:25:57.261Z,1.10
2022-08-22T14:28:27.878Z,1.15
2022-08-22T14:31:07.423Z,1.00
2022-08-22T14:33:39.945Z,0.80
2022-08-22T14:36:30.572Z,2.95
2022-08-22T14:39:02.680Z,0.90
2022-08-22T14:41:52.346Z,1.00
2022-08-22T14:44:25.894Z,1.20
2022-08-22T14:47:04.266Z,1.00
2022-08-22T14:49:52.539Z,0.80
2022-08-22T14:52:33.574Z,1.10
2022-08-22T14:55:26.038Z,0.85
2022-08-22T14:57:57.389Z,1.70
2022-08-22T15:00:33.590Z,1.20
2022-08-22T15:03:20.013Z,0.98
2022-08-22T15:05:51.749Z,1.00
2022-08-22T15:08:27.386Z,1.00
2022-08-22T15:11:09.110Z,0.80
2022-08-22T15:13:41.506Z,1.02
2022-08-22T15:16:21.755Z,0.80
2022-08-22T15:18:51.570Z,0.90
2022-08-22T15:21:32.743Z,1.00
2022-08-22T15:24:04.283Z,0.75
2022-08-22T15:26:41.227Z,1.30
2022-08-22T15:29:17.479Z,1.00
2022-08-22T15:31:46.592Z,0.85
2022-08-22T15:34:47.464Z,0.98
2022-08-22T15:37:19.291Z,1.75
2022-08-22T15:40:13.997Z,0.70
2022-08-22T15:42:51.041Z,0.98
2022-08-22T15:45:30.001Z,0.70
2022-08-22T15:47:59.790Z,0.77
2022-08-22T15:50:55.227Z,1.27
2022-08-22T15:53:25.213Z,0.90
2022-08-22T15:56:07.176Z,0.77
2022-08-22T15:58:39.783Z,0.90
2022-08-22T16:01:19.983Z,1.10
2022-08-22T16:03:58.780Z,1.00
2022-08-22T16:06:46.688Z,1.02
2022-08-22T16:09:30.138Z,1.00
2022-08-22T16:11:57.922Z,0.70
2022-08-22T16:14:49.798Z,0.80
2022-08-22T16:17:28.849Z,0.93
2022-08-22T16:20:10.013Z,0.90
2022-08-22T16:22:58.734Z,0.80
2022-08-22T16:25:50.176Z,0.90
2022-08-22T16:28:57.729Z,1.20
2022-08-22T16:31:29.406Z,0.90
2022-08-22T16:33:59.656Z,1.20
2022-08-22T16:36:40.680Z,0.90
2022-08-22T16:39:12.032Z,0.95
2022-08-22T16:41:42.223Z,0.70
2022-08-22T16:44:30.143Z,0.80
2022-08-22T16:47:14.013Z,1.00
2022-08-22T16:49:56.662Z,0.90
2022-08-22T16:52:23.875Z,0.80
2022-08-22T16:54:55.863Z,0.90
2022-08-22T16:58:05.348Z,0.70
2022-08-22T17:00:38.847Z,0.90
2022-08-22T17:06:00.736Z,1.30
2022-08-22T17:08:44.798Z,0.90
2022-08-22T17:11:45.736Z,1.00
2022-08-22T17:14:20.680Z,1.00
2022-08-22T17:17:05.110Z,1.05
2022-08-22T17:19:53.553Z,1.10
2022-08-22T17:22:44.944Z,0.90
2022-08-22T17:25:49.562Z,0.90
2022-08-22T17:28:39.940Z,0.70
2022-08-22T17:31:25.544Z,1.13
2022-08-22T17:34:01.724Z,0.88
2022-08-22T17:36:44.801Z,1.20
2022-08-22T17:39:39.416Z,1.30
2022-08-22T17:42:22.191Z,1.00
2022-08-22T17:45:11.198Z,1.50
2022-08-22T17:47:58.735Z,1.23
2022-08-22T17:50:32.703Z,1.30
2022-08-22T17:53:03.835Z,1.88
2022-08-22T17:55:34.629Z,1.60
2022-08-22T17:58:13.077Z,2.03
2022-08-22T18:01:11.324Z,1.40
2022-08-22T18:03:45.715Z,1.27
2022-08-22T18:06:23.476Z,1.20
2022-08-22T18:09:15.426Z,1.23
2022-08-22T18:11:52.596Z,1.33
2022-08-22T18:14:27.646Z,1.30
2022-08-22T18:16:56.062Z,2.25
2022-08-22T18:19:46.788Z,1.70
2022-08-22T18:22:25.888Z,1.20
2022-08-22T18:25:11.578Z,1.38
2022-08-22T18:27:48.955Z,1.20
2022-08-22T18:30:20.551Z,1.00
2022-08-22T18:33:09.625Z,1.02
2022-08-22T18:35:39.387Z,1.33
2022-08-22T18:38:33.900Z,1.30
2022-08-22T18:41:29.215Z,1.40
2022-08-22T18:43:59.302Z,1.70
2022-08-22T18:46:38.179Z,2.00
2022-08-22T18:49:15.629Z,1.80
2022-08-22T18:51:43.423Z,2.10
2022-08-22T18:54:13.759Z,1.58
2022-08-22T18:56:45.610Z,1.42
2022-08-22T18:59:28.971Z,1.30
2022-08-22T19:04:55.770Z,1.60
2022-08-22T19:07:57.879Z,1.50
2022-08-22T19:10:39.425Z,1.95
2022-08-22T19:13:09.384Z,2.38
2022-08-22T19:16:15.436Z,2.08
2022-08-22T19:18:45.034Z,2.30
2022-08-22T19:21:37.745Z,1.98
2022-08-22T19:24:29.375Z,2.00
2022-08-22T19:27:11.391Z,1.67
2022-08-22T19:29:38.168Z,1.50
2022-08-22T19:32:12.980Z,1.52
2022-08-22T19:34:46.761Z,2.47
2022-08-22T19:37:32.947Z,2.28
2022-08-22T19:40:09.660Z,3.08
2022-08-22T19:42:39.696Z,2.60
2022-08-22T19:45:09.850Z,2.10
2022-08-22T19:47:39.847Z,1.98
2022-08-22T19:50:24.192Z,2.20
2022-08-22T19:52:56.872Z,3.03
2022-08-22T19:55:39.120Z,2.85
2022-08-22T19:58:18.712Z,3.10
2022-08-22T20:01:20.960Z,3.50
2022-08-22T20:03:53.745Z,4.32
2022-08-22T20:06:40.771Z,3.65
2022-08-22T20:09:26.307Z,3.10
2022-08-22T20:11:59.370Z,3.35
2022-08-22T20:14:35.157Z,2.35
2022-08-22T20:17:05.191Z,2.50
2022-08-22T20:25:43.653Z,2.60
2022-08-22T20:28:08.567Z,5.05
2022-08-22T20:30:42.228Z,4.78
2022-08-22T20:33:38.300Z,4.75
2022-08-22T20:36:27.899Z,4.30
2022-08-22T20:39:07.496Z,3.72
2022-08-22T20:41:40.489Z,3.47
2022-08-22T20:44:34.743Z,3.63
2022-08-22T20:47:07.272Z,3.67
2022-08-22T20:49:43.529Z,4.65
2022-08-22T20:52:19.554Z,4.70
2022-08-22T20:55:08.851Z,5.45
2022-08-22T20:57:45.293Z,6.00
2022-08-22T21:00:15.755Z,6.47
2022-08-22T21:02:48.259Z,6.72
2022-08-22T21:05:18.371Z,5.73
2022-08-22T21:07:48.117Z,5.47
2022-08-22T21:10:49.306Z,5.75
2022-08-22T21:13:24.124Z,6.05
2022-08-22T21:15:56.299Z,6.25
2022-08-22T21:18:36.392Z,6.28
2022-08-22T21:21:22.868Z,7.43
2022-08-22T21:23:52.148Z,6.70
2022-08-22T21:26:29.529Z,6.00
2022-08-22T21:29:32.964Z,6.65
2022-08-22T21:32:11.636Z,6.28
2022-08-22T21:34:44.372Z,6.38
2022-08-22T21:37:17.427Z,6.88
2022-08-22T21:39:47.211Z,6.97
2022-08-22T21:42:32.970Z,7.97
2022-08-22T21:45:03.675Z,7.97
2022-08-22T21:47:33.632Z,8.10
2022-08-22T21:50:12.524Z,8.13
2022-08-22T21:52:45.192Z,8.02
2022-08-22T21:55:34.870Z,7.85
2022-08-22T21:58:10.122Z,8.27
2022-08-22T22:00:48.923Z,8.65
2022-08-22T22:03:18.935Z,7.68
2022-08-22T22:05:46.121Z,8.52
2022-08-22T22:08:13.317Z,7.53
2022-08-22T22:10:41.894Z,8.23
2022-08-22T22:13:09.006Z,8.75
2022-08-22T22:15:45.142Z,8.57
2022-08-22T22:18:17.549Z,8.13
2022-08-22T22:20:46.607Z,8.70
2022-08-22T22:23:13.960Z,8.23
2022-08-22T22:25:42.603Z,7.78
2022-08-22T22:28:31.265Z,8.40
2022-08-22T22:30:58.358Z,8.90
2022-08-22T22:33:29.476Z,8.38
2022-08-22T22:35:59.952Z,8.90
2022-08-22T22:38:27.055Z,9.27
2022-08-22T22:40:54.295Z,8.23
2022-08-22T22:43:21.390Z,8.02
2022-08-22T22:45:48.265Z,8.20
2022-08-22T22:48:24.595Z,8.50
2022-08-22T22:50:52.862Z,8.27
2022-08-22T22:53:21.472Z,7.85
2022-08-22T22:56:06.005Z,8.52
2022-08-22T22:58:33.622Z,8.93
2022-08-22T23:01:18.153Z,8.70
2022-08-22T23:03:45.627Z,9.48
2022-08-22T23:06:15.316Z,10.38
2022-08-22T23:08:42.559Z,9.43
2022-08-22T23:11:16.648Z,9.10
2022-08-22T23:13:43.623Z,9.48
2022-08-22T23:16:13.429Z,9.27
2022-08-22T23:18:41.262Z,9.15
2022-08-22T23:21:14.088Z,9.40
2022-08-22T23:23:42.610Z,9.70
2022-08-22T23:26:10.371Z,10.48
2022-08-22T23:28:37.890Z,10.10
2022-08-22T23:31:54.758Z,11.07
2022-08-22T23:34:47.144Z,12.85
2022-08-22T23:37:20.237Z,11.97
2022-08-22T23:40:09.519Z,12.90
2022-08-22T23:42:36.702Z,12.80
2022-08-22T23:45:04.088Z,12.93
2022-08-22T23:47:31.042Z,11.50
2022-08-22T23:49:58.049Z,11.27
2022-08-22T23:52:26.311Z,11.30
2022-08-22T23:54:55.524Z,10.88
2022-08-22T23:57:26.568Z,11.88
2022-08-22T23:59:58.445Z,11.63
